createdAt,value
2022-10-13T00:06:10.080Z,10.58
2022-10-13T00:16:15.369Z,10.53
2022-10-13T00:26:20.387Z,10.46
2022-10-13T00:36:23.626Z,10.40
2022-10-13T00:46:29.991Z,10.48
2022-10-13T00:56:33.575Z,10.46
2022-10-13T01:06:38.090Z,10.47
2022-10-13T01:16:52.008Z,10.44
2022-10-13T01:27:11.448Z,10.46
2022-10-13T01:37:23.441Z,10.50
2022-10-13T01:47:27.722Z,10.53
2022-10-13T01:57:35.273Z,10.60
2022-10-13T02:07:45.933Z,10.62
2022-10-13T02:17:51.866Z,10.67
2022-10-13T02:27:54.983Z,10.67
2022-10-13T02:37:59.789Z,10.68
2022-10-13T02:48:02.988Z,10.71
2022-10-13T02:58:07.286Z,10.74
2022-10-13T03:08:10.291Z,10.75
2022-10-13T03:18:15.994Z,10.74
2022-10-13T03:28:18.963Z,10.76
2022-10-13T03:38:23.439Z,10.79
2022-10-13T03:48:27.185Z,10.85
2022-10-13T03:58:31.793Z,10.88
2022-10-13T04:08:35.562Z,10.96
2022-10-13T04:18:44.322Z,11.01
2022-10-13T04:28:49.234Z,10.99
2022-10-13T04:38:54.987Z,10.92
2022-10-13T04:48:58.649Z,10.92
2022-10-13T04:59:09.499Z,10.88
2022-10-13T05:09:16.731Z,10.85
2022-10-13T05:19:21.425Z,10.81
2022-10-13T05:29:25.287Z,10.78
2022-10-13T05:39:29.856Z,10.74
2022-10-13T05:49:32.912Z,10.69
2022-10-13T05:59:42.959Z,10.68
2022-10-13T06:09:46.230Z,10.74
2022-10-13T06:19:51.850Z,10.85
2022-10-13T06:29:55.761Z,10.91
2022-10-13T06:40:00.065Z,11.02
2022-10-13T06:50:03.164Z,11.13
2022-10-13T07:00:09.420Z,11.25
2022-10-13T07:10:13.793Z,11.34
2022-10-13T07:20:18.575Z,11.35
2022-10-13T07:30:21.689Z,11.54
2022-10-13T07:40:26.784Z,11.66
2022-10-13T07:50:29.981Z,11.80
2022-10-13T08:00:34.375Z,12.16
2022-10-13T08:10:38.307Z,12.48
2022-10-13T08:20:43.966Z,12.58
2022-10-13T08:30:48.111Z,12.68
2022-10-13T08:40:53.534Z,12.92
2022-10-13T08:51:01.017Z,13.08
2022-10-13T09:01:15.657Z,13.14
2022-10-13T09:11:20.079Z,13.05
2022-10-13T09:21:26.423Z,12.91
2022-10-13T09:31:32.619Z,12.92
2022-10-13T09:41:37.573Z,13.15
2022-10-13T09:51:42.962Z,13.12
2022-10-13T10:01:58.980Z,12.69
2022-10-13T10:12:04.324Z,12.58
2022-10-13T10:22:23.823Z,12.45
2022-10-13T10:32:33.736Z,12.33
2022-10-13T10:43:02.826Z,12.50
2022-10-13T10:53:10.317Z,12.80
2022-10-13T11:03:27.896Z,13.00
2022-10-13T11:13:30.866Z,13.20
2022-10-13T11:23:35.921Z,13.11
2022-10-13T11:33:57.304Z,13.00
2022-10-13T11:44:10.303Z,12.91
2022-10-13T11:54:24.500Z,12.67
2022-10-13T12:04:29.978Z,12.56
2022-10-13T12:25:00.907Z,12.47
2022-10-13T12:35:20.127Z,12.55
2022-10-13T12:45:34.580Z,12.48
2022-10-13T12:55:46.795Z,12.51
2022-10-13T13:05:53.620Z,12.60
2022-10-13T13:16:16.441Z,12.95
2022-10-13T13:26:22.893Z,12.96
2022-10-13T13:36:27.359Z,12.79
2022-10-13T13:46:32.354Z,12.81
2022-10-13T13:56:35.447Z,12.88
2022-10-13T14:06:39.903Z,13.08
2022-10-13T14:16:43.385Z,13.22
2022-10-13T14:26:48.775Z,13.39
2022-10-13T14:36:52.407Z,13.37
2022-10-13T14:46:58.742Z,13.33
2022-10-13T14:57:05.661Z,13.24
2022-10-13T15:07:10.117Z,13.20
2022-10-13T15:17:13.188Z,13.20
2022-10-13T15:27:17.693Z,13.20
2022-10-13T15:37:20.731Z,13.17
2022-10-13T15:47:25.117Z,13.04
2022-10-13T15:57:28.139Z,12.99
2022-10-13T16:07:33.071Z,12.91
2022-10-13T16:17:36.516Z,12.86
2022-10-13T16:27:44.259Z,12.83
2022-10-13T16:37:47.571Z,12.77
2022-10-13T16:47:52.957Z,12.68
2022-10-13T16:57:56.010Z,12.63
2022-10-13T17:08:00.348Z,12.58
2022-10-13T17:18:04.394Z,12.58
2022-10-13T17:28:08.791Z,12.52
2022-10-13T17:38:11.949Z,12.45
2022-10-13T17:48:19.568Z,12.33
2022-10-13T17:58:26.120Z,12.28
2022-10-13T18:08:30.710Z,12.26
2022-10-13T18:18:34.172Z,12.18
2022-10-13T18:28:40.421Z,12.11
2022-10-13T18:38:43.721Z,12.10
2022-10-13T18:48:49.033Z,12.13
2022-10-13T18:58:58.483Z,12.16
2022-10-13T19:09:08.791Z,12.19
2022-10-13T19:19:12.936Z,12.19
2022-10-13T19:29:17.365Z,12.19
2022-10-13T19:39:23.540Z,12.19
2022-10-13T19:49:27.930Z,12.20
2022-10-13T19:59:31.130Z,12.20
2022-10-13T20:09:35.509Z,12.20
2022-10-13T20:19:38.975Z,12.22
2022-10-13T20:29:43.478Z,12.21
2022-10-13T20:39:47.994Z,12.22
2022-10-13T20:49:52.452Z,12.25
2022-10-13T20:59:56.228Z,12.24
2022-10-13T21:10:00.708Z,12.20
2022-10-13T21:20:04.893Z,12.17
2022-10-13T21:30:11.365Z,12.17
2022-10-13T21:40:14.577Z,12.16
2022-10-13T21:50:18.941Z,12.15
2022-10-13T22:00:22.583Z,12.16
2022-10-13T22:10:29.403Z,12.16
2022-10-13T22:20:36.871Z,12.15
2022-10-13T22:30:41.372Z,12.11
2022-10-13T22:40:45.925Z,12.06
2022-10-13T22:50:50.202Z,12.05
2022-10-13T23:00:53.177Z,12.07
2022-10-13T23:10:57.966Z,12.10
2022-10-13T23:21:00.933Z,12.05
2022-10-13T23:31:09.279Z,12.01
2022-10-13T23:41:14.379Z,12.00
2022-10-13T23:51:21.141Z,12.02
